Time;durP1;ratioP1;P1;durP2;ratioP2;P2;SDS_P1;SDS_P2;PMS_P1;PMS_P2;Temp;Humidity;BMP_temperature;BMP_pressure;BME280_temperature;BME280_humidity;BME280_pressure;Samples;Min_cycle;Max_cycle;Signal;HPM_P1;HPM_P2
2022/06/30 00:01:22;;;;;;;17.63;7.50;;;18.40;63.70;;;;;;5049243;28;46474;-63
2022/06/30 00:03:48;;;;;;;14.80;7.07;;;18.40;63.90;;;;;;5049060;28;46406;-61
2022/06/30 00:06:13;;;;;;;11.13;7.17;;;18.30;64.00;;;;;;5049756;28;46474;-63
2022/06/30 00:08:39;;;;;;;14.33;6.83;;;18.10;64.30;;;;;;5048214;28;46405;-62
2022/06/30 00:11:07;;;;;;;13.00;7.33;;;18.00;64.90;;;;;;5049552;28;46326;-62
2022/06/30 00:13:35;;;;;;;13.33;6.50;;;17.90;65.30;;;;;;5052993;28;46373;-62
2022/06/30 00:16:01;;;;;;;13.70;7.40;;;17.70;65.40;;;;;;5049424;28;47596;-61
2022/06/30 00:18:27;;;;;;;25.87;8.47;;;17.70;65.80;;;;;;5047561;28;46486;-63
2022/06/30 00:20:52;;;;;;;15.20;7.50;;;17.60;65.80;;;;;;5048895;28;46520;-63
2022/06/30 00:23:18;;;;;;;15.27;8.10;;;17.50;65.80;;;;;;5048843;28;46548;-63
2022/06/30 00:25:43;;;;;;;15.20;7.57;;;17.60;67.00;;;;;;5048954;28;46390;-62
2022/06/30 00:28:09;;;;;;;19.27;8.27;;;17.60;65.80;;;;;;5047816;28;46375;-63
2022/06/30 00:30:34;;;;;;;19.83;8.50;;;17.60;65.40;;;;;;5048434;28;46434;-61
2022/06/30 00:33:00;;;;;;;25.83;8.53;;;17.70;65.30;;;;;;5048142;28;46598;-62
2022/06/30 00:35:26;;;;;;;12.37;7.77;;;17.70;65.20;;;;;;5048951;28;47273;-62
2022/06/30 00:37:51;;;;;;;21.57;8.30;;;17.70;65.10;;;;;;5048246;28;46380;-62
2022/06/30 00:40:17;;;;;;;14.57;9.33;;;17.70;65.30;;;;;;5048962;28;46750;-62
2022/06/30 00:42:43;;;;;;;15.37;8.80;;;17.70;65.40;;;;;;5050331;28;46586;-62
2022/06/30 00:45:09;;;;;;;16.47;8.33;;;17.70;65.50;;;;;;5049082;28;46162;-62
2022/06/30 00:47:35;;;;;;;12.10;8.43;;;17.60;65.40;;;;;;5050632;28;46314;-62
2022/06/30 00:50:01;;;;;;;14.87;9.10;;;17.70;65.60;;;;;;5049207;28;46489;-62
2022/06/30 00:52:29;;;;;;;15.90;8.40;;;17.70;65.90;;;;;;5048726;28;46789;-62
2022/06/30 00:54:57;;;;;;;13.13;8.17;;;17.60;66.00;;;;;;5048211;28;46371;-63
2022/06/30 00:57:24;;;;;;;14.37;8.50;;;17.60;65.90;;;;;;5049412;28;46370;-62
2022/06/30 00:59:53;;;;;;;15.70;8.13;;;17.60;65.90;;;;;;5048278;28;46617;-62
2022/06/30 01:02:19;;;;;;;11.10;8.43;;;17.60;65.90;;;;;;5048437;28;46699;-62
2022/06/30 01:04:47;;;;;;;13.00;8.27;;;17.50;65.90;;;;;;5053565;28;46825;-62
2022/06/30 01:07:15;;;;;;;21.77;7.90;;;17.50;67.30;;;;;;5047975;28;46421;-62
2022/06/30 01:12:42;;;;;;;15.23;6.20;;;17.40;66.40;;;;;;5048304;28;46635;-62
2022/06/30 01:15:08;;;;;;;23.97;7.80;;;17.40;66.60;;;;;;5047951;28;47197;-62
2022/06/30 01:17:33;;;;;;;18.90;6.80;;;17.30;66.60;;;;;;5047413;28;45957;-62
2022/06/30 01:20:02;;;;;;;17.63;7.30;;;17.20;66.70;;;;;;5047914;28;46808;-63
2022/06/30 01:22:28;;;;;;;15.13;7.40;;;17.20;66.80;;;;;;5047803;28;46643;-62
2022/06/30 01:24:53;;;;;;;11.37;7.10;;;17.20;66.90;;;;;;5046928;28;47313;-63
2022/06/30 01:27:19;;;;;;;12.00;7.70;;;17.20;66.90;;;;;;5047425;28;46708;-62
2022/06/30 01:29:45;;;;;;;11.13;7.47;;;17.10;66.90;;;;;;5046091;28;46435;-61
2022/06/30 01:32:11;;;;;;;13.60;6.93;;;17.10;67.00;;;;;;5048284;28;46594;-62
2022/06/30 01:34:37;;;;;;;13.47;6.93;;;17.00;67.10;;;;;;5048055;28;46368;-63
2022/06/30 01:37:04;;;;;;;21.60;6.57;;;17.00;67.10;;;;;;5048487;28;46396;-62
2022/06/30 01:39:29;;;;;;;27.83;7.20;;;17.00;67.00;;;;;;5046772;28;45953;-62
2022/06/30 01:41:55;;;;;;;22.20;6.43;;;16.80;67.00;;;;;;5049403;28;46653;-62
2022/06/30 01:44:21;;;;;;;22.87;7.10;;;16.70;67.30;;;;;;5044364;28;46449;-62
2022/06/30 01:46:48;;;;;;;15.40;6.10;;;16.70;67.40;;;;;;5046573;28;46452;-62
2022/06/30 01:49:14;;;;;;;22.03;7.10;;;16.60;67.30;;;;;;5046801;28;46370;-62
2022/06/30 01:51:39;;;;;;;24.93;7.47;;;16.60;67.40;;;;;;5049073;28;46543;-62
2022/06/30 01:54:05;;;;;;;14.07;7.10;;;16.50;67.50;;;;;;5047540;28;46457;-62
2022/06/30 01:56:31;;;;;;;27.23;8.10;;;16.40;67.50;;;;;;5048746;28;45923;-63
2022/06/30 01:58:56;;;;;;;11.10;7.53;;;16.40;67.60;;;;;;5045731;28;46375;-62
2022/06/30 02:01:22;;;;;;;13.17;7.43;;;16.40;67.70;;;;;;5046881;28;46477;-62
2022/06/30 02:03:47;;;;;;;26.37;8.67;;;16.30;67.80;;;;;;5046865;28;46406;-62
2022/06/30 02:06:13;;;;;;;18.73;8.20;;;16.30;67.80;;;;;;5047855;28;46448;-61
2022/06/30 02:08:39;;;;;;;24.67;7.73;;;16.30;67.70;;;;;;5046575;28;46975;-61
2022/06/30 02:11:04;;;;;;;11.97;7.67;;;16.30;67.70;;;;;;5047615;28;46455;-61
2022/06/30 02:13:30;;;;;;;17.80;7.70;;;16.40;67.70;;;;;;5045503;28;49512;-61
2022/06/30 02:15:55;;;;;;;18.80;8.43;;;16.50;67.50;;;;;;5046931;28;45823;-62
2022/06/30 02:18:21;;;;;;;11.23;8.90;;;16.50;67.30;;;;;;5046289;28;46461;-61
2022/06/30 02:20:47;;;;;;;19.60;9.70;;;16.50;67.20;;;;;;5045900;28;46502;-62
2022/06/30 02:23:12;;;;;;;21.30;9.60;;;16.50;67.30;;;;;;5047494;28;46538;-61
2022/06/30 02:25:38;;;;;;;21.17;8.20;;;16.50;67.40;;;;;;5047729;28;46421;-62
2022/06/30 02:28:05;;;;;;;16.43;9.10;;;16.50;67.80;;;;;;5047511;28;46655;-61
2022/06/30 02:30:31;;;;;;;12.80;9.70;;;16.60;68.00;;;;;;5045811;28;46000;-61
2022/06/30 02:32:57;;;;;;;18.13;9.60;;;16.60;68.10;;;;;;5045697;28;48299;-61
2022/06/30 02:35:24;;;;;;;19.10;9.00;;;16.60;68.10;;;;;;5046330;28;46397;-62
2022/06/30 02:37:50;;;;;;;16.03;9.70;;;16.60;68.20;;;;;;5047316;28;46943;-61
2022/06/30 02:40:15;;;;;;;19.93;10.23;;;16.60;68.30;;;;;;5046377;28;46525;-61
2022/06/30 02:42:42;;;;;;;19.97;8.60;;;16.60;68.30;;;;;;5046757;28;47091;-62
2022/06/30 02:45:08;;;;;;;15.83;9.30;;;16.70;68.60;;;;;;5044973;28;46660;-61
2022/06/30 02:47:36;;;;;;;16.57;8.47;;;16.60;68.70;;;;;;5042668;28;46524;-60
2022/06/30 02:50:05;;;;;;;14.80;8.63;;;16.60;69.00;;;;;;5045901;28;46414;-61
2022/06/30 02:52:32;;;;;;;11.83;9.47;;;16.60;69.10;;;;;;5046727;28;49830;-61
2022/06/30 02:54:58;;;;;;;14.77;9.47;;;16.60;69.20;;;;;;5051208;28;46500;-61
2022/06/30 02:57:24;;;;;;;13.03;8.93;;;16.60;69.20;;;;;;5048697;28;46525;-60
2022/06/30 02:59:49;;;;;;;24.30;9.70;;;16.60;69.30;;;;;;5045573;28;46410;-60
2022/06/30 03:02:15;;;;;;;17.83;9.10;;;16.60;69.30;;;;;;5044880;28;46640;-61
2022/06/30 03:04:40;;;;;;;18.37;8.57;;;16.60;69.20;;;;;;5044645;28;47055;-61
2022/06/30 03:07:06;;;;;;;18.37;8.20;;;16.60;69.00;;;;;;5044276;28;46487;-62
2022/06/30 03:09:32;;;;;;;17.17;8.43;;;16.70;69.00;;;;;;5044218;28;46634;-65
2022/06/30 03:11:57;;;;;;;20.20;8.60;;;16.70;69.00;;;;;;5044168;28;46505;-61
2022/06/30 03:14:23;;;;;;;23.23;7.97;;;16.70;69.00;;;;;;5044059;28;46530;-61
2022/06/30 03:16:48;;;;;;;27.17;8.70;;;16.70;69.00;;;;;;5044563;28;46376;-61
2022/06/30 03:19:14;;;;;;;16.83;8.60;;;16.70;69.10;;;;;;5046074;28;46361;-61
2022/06/30 03:21:40;;;;;;;17.53;8.10;;;16.60;69.30;;;;;;5046936;28;46475;-61
2022/06/30 03:24:06;;;;;;;19.07;7.20;;;16.50;69.30;;;;;;5046498;28;46353;-62
2022/06/30 03:26:31;;;;;;;18.20;7.37;;;16.50;70.50;;;;;;5044837;28;46451;-62
2022/06/30 03:28:57;;;;;;;15.70;7.53;;;16.50;69.20;;;;;;5045334;28;46428;-62
2022/06/30 03:31:22;;;;;;;17.20;8.50;;;16.50;69.30;;;;;;5049771;28;47874;-62
2022/06/30 03:33:48;;;;;;;22.10;8.13;;;16.50;69.10;;;;;;5050451;28;46456;-63
2022/06/30 03:36:13;;;;;;;17.50;9.30;;;16.50;68.90;;;;;;5050603;28;47383;-63
2022/06/30 03:38:39;;;;;;;22.97;7.80;;;16.60;68.70;;;;;;5049597;28;46664;-62
2022/06/30 03:41:05;;;;;;;23.40;8.40;;;16.60;68.60;;;;;;5048601;28;46968;-62
2022/06/30 03:43:30;;;;;;;17.67;7.20;;;16.70;68.40;;;;;;5049717;28;46335;-62
2022/06/30 03:45:56;;;;;;;16.13;6.77;;;16.70;68.40;;;;;;5050174;28;46733;-63
2022/06/30 03:48:21;;;;;;;24.00;7.50;;;16.70;68.30;;;;;;5053795;28;46826;-62
2022/06/30 03:50:47;;;;;;;12.60;6.90;;;16.70;68.10;;;;;;5047989;28;47098;-62
2022/06/30 03:53:13;;;;;;;18.90;7.20;;;16.80;68.00;;;;;;5048360;28;46541;-63
2022/06/30 03:55:39;;;;;;;14.43;7.20;;;16.80;69.30;;;;;;5048032;28;46425;-62
2022/06/30 03:58:06;;;;;;;11.40;6.07;;;16.80;68.20;;;;;;5048591;28;46609;-62
2022/06/30 04:00:32;;;;;;;13.83;6.37;;;16.90;68.20;;;;;;5047835;28;46988;-62
2022/06/30 04:02:58;;;;;;;12.47;6.30;;;17.00;68.10;;;;;;5047028;28;46875;-62
2022/06/30 04:05:23;;;;;;;18.37;6.47;;;17.10;67.90;;;;;;5049829;28;46830;-62
2022/06/30 04:07:49;;;;;;;13.10;5.40;;;17.10;67.70;;;;;;5048581;28;46441;-61
2022/06/30 04:10:15;;;;;;;10.60;6.53;;;17.20;67.70;;;;;;5049064;28;46525;-62
2022/06/30 04:12:41;;;;;;;15.63;6.33;;;17.30;67.70;;;;;;5048894;28;46332;-62
2022/06/30 04:15:07;;;;;;;13.17;6.20;;;17.30;67.50;;;;;;5049137;28;46365;-62
2022/06/30 04:17:33;;;;;;;23.43;6.10;;;17.30;67.30;;;;;;5049397;28;46463;-62
2022/06/30 04:20:01;;;;;;;20.43;6.57;;;17.40;67.30;;;;;;5049072;28;46338;-62
2022/06/30 04:22:26;;;;;;;16.70;7.20;;;17.50;67.10;;;;;;5047240;28;46405;-62
2022/06/30 04:24:52;;;;;;;27.63;6.33;;;17.60;66.90;;;;;;5049862;28;46493;-63
2022/06/30 04:27:18;;;;;;;23.80;6.00;;;17.70;66.70;;;;;;5049520;28;46701;-61
2022/06/30 04:29:43;;;;;;;23.00;6.30;;;17.80;66.30;;;;;;5048322;28;46922;-61
2022/06/30 04:34:53;;;;;;;13.53;5.83;;;18.10;65.80;;;;;;5049422;28;46485;-63
2022/06/30 04:37:19;;;;;;;14.97;5.93;;;18.30;65.20;;;;;;5047029;28;46410;-62
2022/06/30 04:39:44;;;;;;;14.13;5.03;;;18.40;64.60;;;;;;5046544;28;48010;-62
2022/06/30 04:42:10;;;;;;;19.33;5.80;;;18.60;64.20;;;;;;5046830;28;46403;-61
2022/06/30 04:44:36;;;;;;;13.17;6.60;;;18.80;63.60;;;;;;5048109;28;46878;-62
2022/06/30 04:47:01;;;;;;;12.60;5.03;;;19.20;62.30;;;;;;5047778;28;46666;-62
2022/06/30 04:49:27;;;;;;;18.60;5.03;;;20.70;61.30;;;;;;5048409;28;46315;-62
2022/06/30 04:51:52;;;;;;;13.30;4.63;;;22.30;57.80;;;;;;5046994;28;46412;-62
2022/06/30 04:54:19;;;;;;;11.73;5.00;;;23.50;54.60;;;;;;5049001;28;46604;-60
2022/06/30 04:56:44;;;;;;;9.20;4.27;;;24.60;51.90;;;;;;5049110;28;46426;-61
2022/06/30 04:59:10;;;;;;;9.90;4.20;;;25.60;49.10;;;;;;5048582;28;46909;-61
2022/06/30 05:01:35;;;;;;;8.70;3.73;;;26.60;45.70;;;;;;5049512;28;47052;-60
2022/06/30 05:04:01;;;;;;;9.60;4.00;;;27.30;43.20;;;;;;5049192;28;46391;-61
2022/06/30 05:06:27;;;;;;;9.63;4.17;;;28.00;40.70;;;;;;5047971;28;46495;-61
2022/06/30 05:08:52;;;;;;;8.77;3.90;;;28.70;38.00;;;;;;5049180;28;46388;-61
2022/06/30 05:11:18;;;;;;;9.67;4.17;;;29.10;36.30;;;;;;5048604;28;46382;-62
2022/06/30 05:13:43;;;;;;;12.23;3.80;;;29.60;34.70;;;;;;5047179;28;46485;-61
2022/06/30 05:16:09;;;;;;;6.73;3.40;;;30.30;33.10;;;;;;5047949;28;46679;-63
2022/06/30 05:18:35;;;;;;;7.97;3.60;;;30.90;31.00;;;;;;5046945;28;48140;-63
2022/06/30 05:21:01;;;;;;;8.00;3.70;;;31.40;29.50;;;;;;5045489;28;46437;-63
2022/06/30 05:23:27;;;;;;;12.07;3.77;;;31.70;28.70;;;;;;5047573;28;46433;-62
2022/06/30 05:28:36;;;;;;;10.63;3.27;;;32.30;26.30;;;;;;5046220;28;46357;-62
2022/06/30 05:31:02;;;;;;;7.03;2.83;;;32.50;25.30;;;;;;5046298;28;46397;-63
2022/06/30 05:33:28;;;;;;;6.23;3.40;;;32.60;24.20;;;;;;5045844;28;46343;-61
2022/06/30 05:35:54;;;;;;;8.10;3.00;;;32.50;23.80;;;;;;5047745;28;46443;-63
2022/06/30 05:38:20;;;;;;;11.40;4.17;;;32.50;23.70;;;;;;5047721;28;46830;-62
2022/06/30 05:40:47;;;;;;;15.10;4.00;;;32.90;22.90;;;;;;5048121;28;46926;-60
2022/06/30 05:43:14;;;;;;;13.10;3.80;;;33.10;22.00;;;;;;5046769;28;46531;-61
2022/06/30 05:45:50;;;;;;;7.37;3.23;;;33.50;21.30;;;;;;5047566;28;46713;-61
2022/06/30 05:48:16;;;;;;;7.10;3.90;;;33.80;20.30;;;;;;5046321;28;46385;-62
2022/06/30 05:50:42;;;;;;;6.23;2.87;;;34.10;19.20;;;;;;5048198;28;46524;-61
2022/06/30 05:53:07;;;;;;;8.80;3.77;;;34.20;18.20;;;;;;5045110;28;45772;-62
2022/06/30 05:55:33;;;;;;;8.50;3.20;;;34.20;17.70;;;;;;5048318;28;46637;-61
2022/06/30 05:58:01;;;;;;;12.17;3.73;;;33.50;19.00;;;;;;5048205;28;47160;-61
2022/06/30 06:00:29;;;;;;;10.97;3.23;;;31.70;22.10;;;;;;5047120;28;46449;-62
2022/06/30 06:02:55;;;;;;;6.93;3.07;;;30.10;25.50;;;;;;5046452;28;46374;-62
2022/06/30 06:05:22;;;;;;;7.93;3.57;;;29.10;28.20;;;;;;5048280;28;46696;-61
2022/06/30 06:07:48;;;;;;;5.47;3.40;;;28.30;29.30;;;;;;5047964;28;46407;-61
2022/06/30 06:10:14;;;;;;;7.40;3.10;;;27.60;30.50;;;;;;5046479;28;46358;-61
2022/06/30 06:12:42;;;;;;;11.33;3.57;;;27.10;31.00;;;;;;5047662;28;46745;-60
2022/06/30 06:15:12;;;;;;;5.53;2.83;;;26.70;31.60;;;;;;5044207;28;46730;-61
2022/06/30 06:17:46;;;;;;;10.37;3.87;;;26.50;32.00;;;;;;5045791;28;46736;-61
2022/06/30 06:20:13;;;;;;;10.53;3.70;;;26.40;31.80;;;;;;5045139;28;47035;-63
2022/06/30 06:22:39;;;;;;;6.83;3.97;;;26.40;31.40;;;;;;5041468;28;46432;-63
2022/06/30 06:25:06;;;;;;;12.13;3.97;;;26.40;31.40;;;;;;5052296;28;46504;-62
2022/06/30 06:27:32;;;;;;;10.90;4.60;;;26.20;31.60;;;;;;5044417;28;45957;-61
2022/06/30 06:29:57;;;;;;;11.03;4.03;;;25.80;32.90;;;;;;5043667;28;46491;-61
2022/06/30 06:32:23;;;;;;;11.20;3.90;;;25.40;34.00;;;;;;5043780;28;47344;-62
2022/06/30 06:34:49;;;;;;;8.60;4.20;;;25.40;33.90;;;;;;5050615;28;46468;-62
2022/06/30 06:37:15;;;;;;;8.03;3.97;;;25.60;33.70;;;;;;5049721;28;47241;-62
2022/06/30 06:39:41;;;;;;;8.47;3.80;;;25.60;33.50;;;;;;5061809;28;46451;-61
2022/06/30 06:42:07;;;;;;;7.30;4.33;;;25.80;33.00;;;;;;5045351;28;45802;-61
2022/06/30 06:44:33;;;;;;;6.37;3.80;;;25.80;32.70;;;;;;5043738;28;46724;-62
2022/06/30 06:46:58;;;;;;;10.53;3.80;;;25.70;33.40;;;;;;5048993;28;46397;-62
2022/06/30 06:49:24;;;;;;;6.30;4.00;;;25.80;33.60;;;;;;5046768;28;46386;-63
2022/06/30 06:51:50;;;;;;;12.57;4.37;;;26.00;33.30;;;;;;5046764;28;46371;-63
2022/06/30 06:54:19;;;;;;;6.00;4.00;;;26.20;32.70;;;;;;5061258;28;46512;-61
2022/06/30 06:56:44;;;;;;;9.87;4.87;;;26.30;32.60;;;;;;5045655;28;46004;-62
2022/06/30 06:59:10;;;;;;;8.17;5.03;;;25.90;33.40;;;;;;5044408;28;46521;-61
2022/06/30 07:01:36;;;;;;;11.47;4.93;;;25.50;35.40;;;;;;5044557;28;46434;-62
2022/06/30 07:04:01;;;;;;;9.90;5.10;;;25.30;34.40;;;;;;5043251;28;46436;-62
2022/06/30 07:06:27;;;;;;;10.97;5.50;;;25.30;34.30;;;;;;5049086;28;46312;-63
2022/06/30 07:08:53;;;;;;;8.70;4.90;;;25.00;35.10;;;;;;5047894;28;46415;-63
2022/06/30 07:11:19;;;;;;;16.07;5.27;;;25.00;35.60;;;;;;5049354;28;45898;-60
2022/06/30 07:13:45;;;;;;;13.93;4.90;;;25.10;35.30;;;;;;5047459;28;46576;-63
2022/06/30 07:16:12;;;;;;;11.67;5.20;;;25.40;35.00;;;;;;5050073;28;46747;-63
2022/06/30 07:18:37;;;;;;;7.87;4.33;;;25.70;34.30;;;;;;5047826;28;45901;-63
2022/06/30 07:21:03;;;;;;;13.17;5.60;;;25.60;34.60;;;;;;5048616;28;46580;-63
2022/06/30 07:23:29;;;;;;;9.60;4.87;;;25.70;34.50;;;;;;5047397;28;46624;-63
2022/06/30 07:25:55;;;;;;;8.33;4.80;;;25.80;34.10;;;;;;5049367;28;47107;-61
2022/06/30 07:28:20;;;;;;;8.10;4.23;;;25.90;34.20;;;;;;5048937;28;46376;-65
2022/06/30 07:30:46;;;;;;;9.13;4.63;;;25.80;34.40;;;;;;5049537;28;46435;-61
2022/06/30 07:33:11;;;;;;;5.90;3.87;;;25.90;34.10;;;;;;5046426;28;46412;-62
2022/06/30 07:35:37;;;;;;;7.67;4.47;;;26.00;34.40;;;;;;5047510;28;47155;-62
2022/06/30 07:38:03;;;;;;;12.70;4.43;;;26.20;33.80;;;;;;5049404;28;46345;-60
2022/06/30 07:40:28;;;;;;;7.17;4.20;;;25.90;34.80;;;;;;5048502;28;45810;-61
2022/06/30 07:42:55;;;;;;;8.53;4.03;;;26.00;35.20;;;;;;5044545;28;46711;-63
2022/06/30 07:45:22;;;;;;;8.23;4.73;;;26.00;35.30;;;;;;5049263;28;46448;-62
2022/06/30 07:47:48;;;;;;;7.33;4.43;;;26.20;35.00;;;;;;5047042;28;46443;-63
2022/06/30 07:50:16;;;;;;;6.47;4.20;;;26.40;34.70;;;;;;5046728;28;46494;-61
2022/06/30 07:52:42;;;;;;;7.90;3.87;;;26.70;33.70;;;;;;5045468;28;46677;-61
2022/06/30 07:55:08;;;;;;;8.07;4.97;;;26.60;33.40;;;;;;5045503;28;46657;-60
2022/06/30 07:57:37;;;;;;;7.00;3.90;;;26.80;33.10;;;;;;5049210;28;46377;-63
2022/06/30 08:00:05;;;;;;;14.60;5.07;;;26.70;32.80;;;;;;5046459;28;46403;-61
2022/06/30 08:02:31;;;;;;;10.33;4.27;;;26.90;32.40;;;;;;5044445;28;46445;-61
2022/06/30 08:04:56;;;;;;;5.77;4.07;;;27.10;31.70;;;;;;5046150;28;46432;-60
2022/06/30 08:07:22;;;;;;;8.77;4.30;;;27.10;31.70;;;;;;5048159;28;46325;-61
2022/06/30 08:09:47;;;;;;;8.37;3.67;;;26.90;31.70;;;;;;5048806;28;46527;-61
2022/06/30 08:12:13;;;;;;;9.60;3.80;;;27.10;31.60;;;;;;5048214;28;46592;-63
2022/06/30 08:14:39;;;;;;;10.00;3.97;;;27.10;31.20;;;;;;5045001;28;46437;-62
2022/06/30 08:17:04;;;;;;;9.10;3.90;;;27.30;30.90;;;;;;5047416;28;45854;-62
2022/06/30 08:19:30;;;;;;;11.00;4.30;;;27.10;30.80;;;;;;5048832;28;46380;-62
2022/06/30 08:21:56;;;;;;;7.20;4.03;;;27.00;31.10;;;;;;5048421;28;46537;-60
2022/06/30 08:24:21;;;;;;;13.23;5.40;;;27.20;31.00;;;;;;5044690;28;47294;-61
2022/06/30 08:26:47;;;;;;;10.13;4.80;;;27.30;31.00;;;;;;5048475;28;46469;-61
2022/06/30 08:29:13;;;;;;;11.57;4.37;;;27.40;31.00;;;;;;5048822;28;46476;-60
2022/06/30 08:31:40;;;;;;;11.50;3.90;;;27.50;30.40;;;;;;5048426;28;46378;-61
2022/06/30 08:34:05;;;;;;;5.50;3.50;;;27.30;30.40;;;;;;5045102;28;46169;-63
2022/06/30 08:36:31;;;;;;;12.67;4.00;;;27.10;31.30;;;;;;5047242;28;46425;-59
2022/06/30 08:38:57;;;;;;;9.83;3.80;;;27.20;32.20;;;;;;5047208;28;46361;-61
2022/06/30 08:44:08;;;;;;;6.10;3.80;;;27.30;31.70;;;;;;5040657;28;46774;-62
2022/06/30 08:46:38;;;;;;;17.70;4.43;;;27.10;30.50;;;;;;5046359;28;46431;-62
2022/06/30 08:49:04;;;;;;;11.00;4.53;;;26.80;30.90;;;;;;5045675;28;46529;-62
2022/06/30 08:51:34;;;;;;;10.00;3.93;;;27.00;30.80;;;;;;5060643;28;46632;-61
2022/06/30 08:54:01;;;;;;;6.33;3.90;;;27.00;30.80;;;;;;5043675;28;46860;-61
2022/06/30 08:56:32;;;;;;;10.37;3.70;;;27.10;31.10;;;;;;5047283;28;46461;-61
2022/06/30 08:58:58;;;;;;;9.33;3.70;;;27.30;30.60;;;;;;5047285;28;46797;-61
2022/06/30 09:01:26;;;;;;;8.23;3.83;;;27.40;30.20;;;;;;5047309;28;46644;-61
2022/06/30 09:03:52;;;;;;;7.60;3.47;;;27.30;30.20;;;;;;5043604;28;46423;-62
2022/06/30 09:06:18;;;;;;;7.83;3.90;;;27.30;30.50;;;;;;5047108;28;46459;-61
2022/06/30 09:08:43;;;;;;;7.20;4.00;;;27.50;30.00;;;;;;5049574;28;46463;-62
2022/06/30 09:11:09;;;;;;;8.00;3.53;;;27.70;29.60;;;;;;5045325;28;46472;-60
2022/06/30 09:13:43;;;;;;;8.23;3.43;;;27.80;28.90;;;;;;5042360;28;46457;-61
2022/06/30 09:16:09;;;;;;;9.80;3.80;;;27.80;28.10;;;;;;5046765;28;46544;-60
2022/06/30 09:18:35;;;;;;;7.80;3.67;;;27.80;27.80;;;;;;5046320;28;46461;-62
2022/06/30 09:21:15;;;;;;;12.13;3.80;;;27.70;27.90;;;;;;5047596;28;46645;-61
2022/06/30 09:23:44;;;;;;;5.40;3.00;;;27.80;27.50;;;;;;5043066;28;48669;-61
2022/06/30 09:26:18;;;;;;;8.17;3.63;;;27.80;27.50;;;;;;5046928;28;45977;-61
2022/06/30 09:28:53;;;;;;;7.80;3.40;;;27.80;27.50;;;;;;5047568;28;46424;-61
2022/06/30 09:31:38;;;;;;;12.53;3.80;;;27.60;27.40;;;;;;5044768;28;46405;-61
2022/06/30 09:34:30;;;;;;;6.97;3.23;;;27.70;27.50;;;;;;5040270;28;46466;-61
2022/06/30 09:36:56;;;;;;;10.10;4.23;;;27.70;27.40;;;;;;5044130;28;46532;-61
2022/06/30 09:39:22;;;;;;;13.23;4.13;;;27.80;27.80;;;;;;5047060;28;46477;-61
2022/06/30 09:41:49;;;;;;;13.67;3.70;;;28.10;27.70;;;;;;5048432;28;46399;-61
2022/06/30 09:44:23;;;;;;;11.33;3.53;;;28.30;27.70;;;;;;5042257;28;49027;-60
2022/06/30 09:47:12;;;;;;;9.43;3.70;;;28.50;27.10;;;;;;5047739;28;46354;-60
2022/06/30 09:49:39;;;;;;;13.00;3.30;;;28.50;26.50;;;;;;5045730;28;46397;-61
2022/06/30 09:52:19;;;;;;;6.93;3.70;;;28.50;26.60;;;;;;5046771;28;46448;-61
2022/06/30 09:55:06;;;;;;;6.40;3.83;;;28.20;26.80;;;;;;5042309;28;47273;-61
2022/06/30 09:57:36;;;;;;;7.40;3.50;;;28.00;27.30;;;;;;5045681;28;45899;-61
2022/06/30 10:00:06;;;;;;;6.93;3.80;;;28.20;27.20;;;;;;5046035;28;46421;-61
2022/06/30 10:02:42;;;;;;;9.77;4.20;;;28.30;27.10;;;;;;5042653;28;46678;-61
2022/06/30 10:05:09;;;;;;;7.03;3.50;;;28.40;26.50;;;;;;5046609;28;47354;-61
2022/06/30 10:07:37;;;;;;;13.00;3.57;;;28.50;25.80;;;;;;5045751;28;46420;-60
2022/06/30 10:10:09;;;;;;;11.90;3.20;;;28.60;25.80;;;;;;5045844;28;46318;-60
2022/06/30 10:12:35;;;;;;;16.60;4.20;;;28.50;25.60;;;;;;5042126;28;46386;-61
2022/06/30 10:15:01;;;;;;;8.13;3.53;;;28.50;25.70;;;;;;5045809;28;47305;-61
2022/06/30 10:17:30;;;;;;;9.63;3.80;;;28.30;26.00;;;;;;5046451;28;46741;-61
2022/06/30 10:19:56;;;;;;;8.27;3.00;;;28.30;25.60;;;;;;5045016;28;46441;-61
2022/06/30 10:22:27;;;;;;;9.13;3.50;;;28.20;25.40;;;;;;5042577;28;46016;-61
2022/06/30 10:24:55;;;;;;;7.97;3.93;;;28.20;25.50;;;;;;5042293;28;46986;-61
2022/06/30 10:27:22;;;;;;;9.83;4.33;;;28.10;25.90;;;;;;5045942;28;46394;-60
2022/06/30 10:30:05;;;;;;;8.90;3.80;;;28.30;25.90;;;;;;5059858;28;46385;-60
2022/06/30 10:32:55;;;;;;;7.57;4.30;;;28.70;25.60;;;;;;5042575;28;47012;-61
2022/06/30 10:35:45;;;;;;;10.10;4.60;;;28.90;25.20;;;;;;5044956;28;46376;-60
2022/06/30 10:38:28;;;;;;;7.07;3.70;;;28.80;24.80;;;;;;5045770;28;46375;-62
2022/06/30 10:41:10;;;;;;;11.90;4.10;;;28.60;24.90;;;;;;5049580;28;46433;-61
2022/06/30 10:44:04;;;;;;;7.67;3.97;;;28.80;24.70;;;;;;5045641;28;46379;-61
2022/06/30 10:46:56;;;;;;;10.20;4.10;;;28.90;24.90;;;;;;5050116;28;46440;-61
2022/06/30 10:49:27;;;;;;;10.03;4.93;;;28.80;24.90;;;;;;5047889;28;46354;-61
2022/06/30 10:52:22;;;;;;;17.27;4.40;;;28.70;25.10;;;;;;5049976;28;46466;-61
2022/06/30 10:54:48;;;;;;;12.53;4.90;;;28.60;24.90;;;;;;5045476;28;46599;-61
2022/06/30 10:57:16;;;;;;;8.97;4.27;;;28.50;25.30;;;;;;5051907;28;47215;-61
2022/06/30 10:59:41;;;;;;;10.33;5.27;;;28.50;25.60;;;;;;5048945;28;45864;-60
2022/06/30 11:02:07;;;;;;;8.50;4.60;;;28.50;25.70;;;;;;5048953;28;46320;-62
2022/06/30 11:04:36;;;;;;;13.13;4.97;;;28.60;25.20;;;;;;5045406;28;46678;-61
2022/06/30 11:07:07;;;;;;;9.87;4.30;;;28.40;25.10;;;;;;5049456;28;46966;-61
2022/06/30 11:09:48;;;;;;;16.07;4.27;;;28.50;24.80;;;;;;5050030;28;46393;-61
2022/06/30 11:12:15;;;;;;;17.27;6.13;;;28.60;25.00;;;;;;5048313;28;46380;-62
2022/06/30 11:14:50;;;;;;;16.90;5.47;;;28.60;24.90;;;;;;5045451;28;46588;-62
2022/06/30 11:17:18;;;;;;;9.33;4.23;;;28.40;25.10;;;;;;5046743;28;48312;-61
2022/06/30 11:19:44;;;;;;;8.73;3.90;;;28.50;24.80;;;;;;5047013;28;46433;-62
2022/06/30 11:22:17;;;;;;;6.80;3.90;;;28.60;24.70;;;;;;5047974;28;46358;-61
2022/06/30 11:24:47;;;;;;;41.27;8.10;;;28.70;24.80;;;;;;5045382;28;47278;-61
2022/06/30 11:27:22;;;;;;;37.17;7.07;;;28.80;24.70;;;;;;5048453;28;47099;-62
2022/06/30 11:30:10;;;;;;;13.83;5.90;;;28.80;24.70;;;;;;5049364;28;46479;-63
2022/06/30 11:32:37;;;;;;;11.17;3.77;;;28.90;24.80;;;;;;5045610;28;46517;-62
2022/06/30 11:35:04;;;;;;;13.23;4.30;;;28.80;24.20;;;;;;5047133;28;47126;-61
2022/06/30 11:37:33;;;;;;;8.20;3.87;;;28.80;24.70;;;;;;5049108;28;48666;-62
2022/06/30 11:40:15;;;;;;;8.07;3.70;;;28.80;24.10;;;;;;5050579;28;46719;-62
2022/06/30 11:42:40;;;;;;;16.23;5.00;;;28.90;24.00;;;;;;5050546;28;45889;-62
2022/06/30 11:45:19;;;;;;;10.50;3.77;;;28.80;24.20;;;;;;5047138;28;46717;-61
2022/06/30 11:48:03;;;;;;;7.83;3.60;;;28.90;24.20;;;;;;5046984;28;46585;-62
2022/06/30 11:50:29;;;;;;;24.33;6.77;;;29.00;24.10;;;;;;5046843;28;46392;-61
2022/06/30 11:52:57;;;;;;;8.63;3.87;;;29.10;24.10;;;;;;5040667;28;47063;-62
2022/06/30 11:55:29;;;;;;;8.70;3.47;;;29.00;24.10;;;;;;5045573;28;46350;-61
2022/06/30 11:57:55;;;;;;;7.47;3.90;;;29.10;23.60;;;;;;5048022;28;46451;-61
2022/06/30 12:00:27;;;;;;;14.17;3.70;;;28.90;23.50;;;;;;5048745;28;47412;-62
2022/06/30 12:02:53;;;;;;;10.43;4.30;;;29.00;23.50;;;;;;5042616;28;46528;-62
2022/06/30 12:05:24;;;;;;;16.97;3.50;;;29.20;23.60;;;;;;5049604;28;46537;-61
2022/06/30 12:07:50;;;;;;;7.07;3.80;;;29.10;23.00;;;;;;5046654;28;48135;-62
2022/06/30 12:10:18;;;;;;;8.77;3.60;;;29.20;23.20;;;;;;5048436;28;46423;-61
2022/06/30 12:12:44;;;;;;;5.90;3.80;;;29.10;23.80;;;;;;5045602;28;46371;-60
2022/06/30 12:15:14;;;;;;;6.30;3.57;;;29.10;23.10;;;;;;5047876;28;46702;-61
2022/06/30 12:17:47;;;;;;;7.20;4.20;;;29.10;22.70;;;;;;5050453;28;46450;-61
2022/06/30 12:20:14;;;;;;;6.43;3.77;;;29.10;23.00;;;;;;5049914;28;46623;-61
2022/06/30 12:22:48;;;;;;;13.77;4.70;;;29.00;23.40;;;;;;5050710;28;46418;-61
2022/06/30 12:25:15;;;;;;;7.70;4.37;;;29.00;23.40;;;;;;5048874;28;45941;-62
2022/06/30 12:27:43;;;;;;;15.20;4.23;;;29.00;23.40;;;;;;5050270;28;46243;-61
2022/06/30 12:30:14;;;;;;;6.30;3.23;;;29.30;23.20;;;;;;5051634;28;46507;-61
2022/06/30 12:32:41;;;;;;;7.93;3.60;;;29.20;22.70;;;;;;5047790;28;46673;-61
2022/06/30 12:35:10;;;;;;;6.10;3.07;;;29.20;22.90;;;;;;5047737;28;45934;-61
2022/06/30 12:37:37;;;;;;;8.27;3.83;;;29.20;23.50;;;;;;5051391;28;47458;-61
2022/06/30 12:40:07;;;;;;;6.70;3.70;;;29.20;23.10;;;;;;5052942;28;46345;-61
2022/06/30 12:42:43;;;;;;;10.03;3.80;;;29.10;23.40;;;;;;5050667;28;46429;-62
2022/06/30 12:45:33;;;;;;;10.00;3.23;;;29.10;23.20;;;;;;5048031;28;46424;-61
2022/06/30 12:47:59;;;;;;;10.70;3.27;;;29.20;23.00;;;;;;5051078;28;46560;-60
2022/06/30 12:50:25;;;;;;;7.30;3.30;;;29.20;23.20;;;;;;5050827;28;46318;-61
2022/06/30 12:52:50;;;;;;;10.40;4.03;;;29.30;23.10;;;;;;5049312;28;46513;-59
2022/06/30 12:55:16;;;;;;;8.00;3.33;;;29.50;22.90;;;;;;5044273;28;46792;-61